TimeCST,TemperatureF,Dew PointF,Humidity,Sea Level PressureIn,VisibilityMPH,Wind Direction,Wind SpeedMPH,Gust SpeedMPH,PrecipitationIn,Events,Conditions,WindDirDegrees,DateUTC
12:15 AM,18.1,12.9,80,30.34,10.0,Calm,Calm,-,N/A,,Clear,0,2013-01-15 06:15:00
12:35 AM,19.8,13.5,77,30.34,10.0,SSW,3.5,-,N/A,,Clear,200,2013-01-15 06:35:00
12:55 AM,18.7,13.6,81,30.33,10.0,Calm,Calm,-,N/A,,Clear,0,2013-01-15 06:55:00
1:15 AM,18.5,13.5,81,30.32,10.0,Calm,Calm,-,N/A,,Clear,0,2013-01-15 07:15:00
1:35 AM,18.3,13.8,83,30.31,10.0,Calm,Calm,-,N/A,,Clear,0,2013-01-15 07:35:00
2:15 AM,16.7,12.7,84,30.31,10.0,Calm,Calm,-,N/A,,Clear,0,2013-01-15 08:15:00
2:35 AM,16.7,12.2,82,30.31,10.0,Calm,Calm,-,N/A,,Clear,0,2013-01-15 08:35:00
3:15 AM,14.7,10.4,83,30.30,10.0,Calm,Calm,-,N/A,,Clear,0,2013-01-15 09:15:00
3:35 AM,14.2,10.8,86,30.31,10.0,Calm,Calm,-,N/A,,Scattered Clouds,0,2013-01-15 09:35:00
3:55 AM,14.7,11.3,86,30.30,10.0,Calm,Calm,-,N/A,,Scattered Clouds,0,2013-01-15 09:55:00
5:15 AM,13.3,9.7,86,30.29,10.0,Calm,Calm,-,N/A,,Clear,0,2013-01-15 11:15:00
5:35 AM,13.1,9.3,85,30.29,10.0,Calm,Calm,-,N/A,,Clear,0,2013-01-15 11:35:00
5:55 AM,14.2,9.7,82,30.29,10.0,Calm,Calm,-,N/A,,Mostly Cloudy,0,2013-01-15 11:55:00
6:15 AM,14.9,10.2,82,30.29,10.0,Calm,Calm,-,N/A,,Overcast,0,2013-01-15 12:15:00
6:35 AM,19.2,12.4,75,30.30,10.0,SSW,3.5,-,N/A,,Mostly Cloudy,200,2013-01-15 12:35:00
6:55 AM,19.9,11.8,71,30.29,10.0,SSW,3.5,-,N/A,,Mostly Cloudy,200,2013-01-15 12:55:00
7:15 AM,18.3,11.3,74,30.29,10.0,Calm,Calm,-,N/A,,Overcast,0,2013-01-15 13:15:00
7:35 AM,18.3,11.5,75,30.29,10.0,South,3.5,-,N/A,,Scattered Clouds,190,2013-01-15 13:35:00
7:55 AM,17.6,10.8,75,30.29,10.0,Calm,Calm,-,N/A,,Clear,0,2013-01-15 13:55:00
8:15 AM,17.6,11.3,76,30.28,10.0,SSW,6.9,-,N/A,,Clear,200,2013-01-15 14:15:00
8:35 AM,19.2,12.2,74,30.29,10.0,West,3.5,-,N/A,,Clear,270,2013-01-15 14:35:00
8:55 AM,20.5,13.1,73,30.29,10.0,Calm,Calm,-,N/A,,Clear,0,2013-01-15 14:55:00
9:15 AM,22.6,14.2,70,30.29,10.0,SSW,3.5,-,N/A,,Clear,200,2013-01-15 15:15:00
9:35 AM,25.3,15.4,66,30.29,10.0,SW,5.8,-,N/A,,Clear,220,2013-01-15 15:35:00
9:55 AM,27.0,15.4,62,30.28,10.0,SW,5.8,-,N/A,,Clear,230,2013-01-15 15:55:00
10:15 AM,28.4,17.8,64,30.27,10.0,WSW,6.9,-,N/A,,Clear,250,2013-01-15 16:15:00
10:35 AM,29.7,19.6,66,30.27,10.0,West,9.2,-,N/A,,Clear,270,2013-01-15 16:35:00
10:55 AM,30.4,19.9,65,30.27,10.0,WSW,8.1,-,N/A,,Clear,250,2013-01-15 16:55:00
11:15 AM,31.3,19.8,62,30.27,10.0,West,8.1,-,N/A,,Clear,260,2013-01-15 17:15:00
11:35 AM,32.0,19.8,61,30.26,10.0,West,9.2,-,N/A,,Clear,270,2013-01-15 17:35:00
11:55 AM,32.7,19.9,59,30.25,10.0,West,6.9,-,N/A,,Clear,260,2013-01-15 17:55:00
12:15 PM,32.9,19.9,59,30.23,10.0,West,5.8,-,N/A,,Clear,280,2013-01-15 18:15:00
12:35 PM,34.0,19.4,55,30.22,10.0,West,8.1,-,N/A,,Clear,270,2013-01-15 18:35:00
12:55 PM,34.3,19.8,55,30.21,10.0,West,6.9,-,N/A,,Scattered Clouds,270,2013-01-15 18:55:00
1:35 PM,34.5,18.5,52,30.19,10.0,WSW,8.1,-,N/A,,Scattered Clouds,240,2013-01-15 19:35:00
1:55 PM,36.9,18.9,48,30.18,10.0,West,10.4,-,N/A,,Scattered Clouds,270,2013-01-15 19:55:00
2:15 PM,34.2,18.5,53,30.18,10.0,WSW,6.9,-,N/A,,Mostly Cloudy,250,2013-01-15 20:15:00
2:35 PM,34.2,20.5,57,30.18,10.0,WNW,5.8,-,N/A,,Mostly Cloudy,290,2013-01-15 20:35:00
2:55 PM,34.0,20.3,57,30.18,10.0,West,5.8,-,N/A,,Overcast,270,2013-01-15 20:55:00
3:15 PM,34.3,19.9,56,30.17,10.0,West,4.6,-,N/A,,Mostly Cloudy,260,2013-01-15 21:15:00
3:35 PM,35.1,19.6,53,30.17,10.0,WSW,9.2,-,N/A,,Scattered Clouds,250,2013-01-15 21:35:00
3:55 PM,34.7,19.6,54,30.17,10.0,SW,6.9,-,N/A,,Scattered Clouds,220,2013-01-15 21:55:00
4:15 PM,34.2,19.8,56,30.17,10.0,WSW,5.8,-,N/A,,Mostly Cloudy,240,2013-01-15 22:15:00
4:55 PM,34.0,19.4,55,30.16,10.0,SW,8.1,-,N/A,,Clear,220,2013-01-15 22:55:00
5:15 PM,32.4,19.9,60,30.16,10.0,SW,5.8,-,N/A,,Clear,230,2013-01-15 23:15:00
5:35 PM,31.1,19.9,63,30.16,10.0,SW,5.8,-,N/A,,Clear,230,2013-01-15 23:35:00
5:55 PM,29.8,19.4,65,30.16,10.0,SW,5.8,-,N/A,,Clear,230,2013-01-15 23:55:00
6:15 PM,29.3,19.6,67,30.15,10.0,SW,4.6,-,N/A,,Clear,220,2013-01-16 00:15:00
6:35 PM,28.6,19.4,69,30.16,10.0,SW,4.6,-,N/A,,Clear,220,2013-01-16 00:35:00
6:55 PM,28.2,19.4,70,30.15,10.0,SSW,6.9,-,N/A,,Clear,210,2013-01-16 00:55:00
7:15 PM,25.7,18.9,75,30.15,10.0,WSW,4.6,-,N/A,,Clear,250,2013-01-16 01:15:00
7:35 PM,24.8,18.5,77,30.15,10.0,SW,4.6,-,N/A,,Clear,230,2013-01-16 01:35:00
7:55 PM,26.6,19.0,73,30.14,10.0,SW,5.8,-,N/A,,Clear,220,2013-01-16 01:55:00
8:15 PM,26.2,18.9,74,30.13,10.0,SSW,6.9,-,N/A,,Clear,210,2013-01-16 02:15:00
8:35 PM,26.1,18.5,73,30.12,10.0,SSW,9.2,-,N/A,,Clear,210,2013-01-16 02:35:00
8:55 PM,26.1,18.5,73,30.12,10.0,SSW,9.2,-,N/A,,Clear,210,2013-01-16 02:55:00
9:15 PM,25.3,18.5,75,30.11,10.0,SSW,9.2,-,N/A,,Clear,210,2013-01-16 03:15:00
9:35 PM,24.6,18.1,76,30.11,10.0,SSW,11.5,-,N/A,,Clear,200,2013-01-16 03:35:00
9:55 PM,24.4,17.6,75,30.10,10.0,SSW,11.5,-,N/A,,Clear,200,2013-01-16 03:55:00
10:15 PM,23.9,17.6,77,30.10,10.0,SSW,12.7,-,N/A,,Clear,200,2013-01-16 04:15:00
10:35 PM,23.9,17.6,77,30.09,10.0,SSW,11.5,-,N/A,,Clear,200,2013-01-16 04:35:00
10:55 PM,24.4,18.1,77,30.08,10.0,SSW,13.8,-,N/A,,Clear,200,2013-01-16 04:55:00
11:15 PM,24.6,18.0,76,30.08,10.0,SSW,11.5,-,N/A,,Clear,210,2013-01-16 05:15:00
11:35 PM,24.8,18.1,76,30.08,10.0,SW,8.1,-,N/A,,Clear,220,2013-01-16 05:35:00